createdAt,value
2017-12-02T00:03:00.451Z,18.70
2017-12-02T00:08:02.914Z,18.30
2017-12-02T00:13:04.446Z,18.23
2017-12-02T00:18:05.969Z,17.90
2017-12-02T00:23:08.145Z,16.70
2017-12-02T00:28:09.692Z,20.30
2017-12-02T00:33:11.227Z,18.23
2017-12-02T00:38:12.813Z,18.37
2017-12-02T00:43:14.341Z,18.43
2017-12-02T00:48:15.837Z,17.13
2017-12-02T00:53:17.512Z,16.83
2017-12-02T00:58:19.036Z,15.87
2017-12-02T01:03:20.541Z,15.33
2017-12-02T01:08:22.078Z,15.70
2017-12-02T01:13:23.585Z,14.57
2017-12-02T01:18:25.129Z,16.50
2017-12-02T01:23:26.649Z,16.40
2017-12-02T01:28:28.852Z,18.27
2017-12-02T01:33:30.342Z,16.67
2017-12-02T01:38:31.871Z,17.20
2017-12-02T01:43:34.112Z,17.03
2017-12-02T01:48:35.651Z,18.20
2017-12-02T01:53:37.165Z,18.47
2017-12-02T01:58:38.656Z,17.77
2017-12-02T02:03:40.925Z,19.20
2017-12-02T02:08:42.417Z,18.17
2017-12-02T02:13:43.918Z,17.70
2017-12-02T02:18:45.409Z,16.00
2017-12-02T02:23:47.133Z,16.63
2017-12-02T02:28:48.697Z,16.47
2017-12-02T02:33:50.285Z,17.00
2017-12-02T02:38:51.865Z,17.30
2017-12-02T02:43:53.420Z,19.70
2017-12-02T02:48:54.908Z,16.07
2017-12-02T02:53:56.419Z,18.43
2017-12-02T02:58:58.700Z,16.90
2017-12-02T03:04:00.977Z,17.50
2017-12-02T03:09:03.226Z,17.70
2017-12-02T03:14:04.730Z,15.37
2017-12-02T03:19:06.953Z,18.10
2017-12-02T03:24:08.473Z,17.17
2017-12-02T03:29:09.981Z,15.70
2017-12-02T03:34:11.485Z,17.07
2017-12-02T03:39:12.993Z,15.80
2017-12-02T03:44:14.553Z,16.33
2017-12-02T03:49:16.825Z,16.77
2017-12-02T03:54:19.128Z,16.63
2017-12-02T03:59:21.463Z,17.57
2017-12-02T04:04:23.036Z,15.70
2017-12-02T04:09:24.548Z,16.20
2017-12-02T04:14:26.806Z,16.63
2017-12-02T04:19:28.319Z,15.93
2017-12-02T04:24:29.838Z,16.07
2017-12-02T04:29:31.334Z,16.37
2017-12-02T04:34:32.884Z,17.73
2017-12-02T04:39:35.117Z,18.17
2017-12-02T04:44:36.744Z,18.77
2017-12-02T04:49:39.012Z,17.43
2017-12-02T04:54:40.557Z,17.23
2017-12-02T04:59:42.098Z,16.50
2017-12-02T05:04:43.609Z,17.50
2017-12-02T05:09:45.158Z,17.70
2017-12-02T05:14:46.654Z,15.23
2017-12-02T05:19:48.891Z,17.47
2017-12-02T05:24:50.612Z,16.70
2017-12-02T05:29:52.848Z,16.10
2017-12-02T05:34:54.374Z,17.13
2017-12-02T05:39:55.880Z,18.37
2017-12-02T05:44:57.372Z,16.00
2017-12-02T05:49:59.094Z,18.50
2017-12-02T05:55:00.621Z,17.87
2017-12-02T06:00:02.875Z,16.10
2017-12-02T06:05:04.341Z,18.63
2017-12-02T06:10:05.861Z,17.00
2017-12-02T06:15:07.372Z,19.03
2017-12-02T06:20:08.908Z,20.63
2017-12-02T06:25:10.381Z,19.80
2017-12-02T06:30:11.905Z,21.07
2017-12-02T06:35:13.398Z,19.90
2017-12-02T06:40:14.882Z,23.17
2017-12-02T06:45:16.425Z,21.50
2017-12-02T06:50:18.711Z,21.00
2017-12-02T06:55:20.213Z,22.43
2017-12-02T07:00:21.776Z,21.27
2017-12-02T07:05:23.264Z,19.80
2017-12-02T07:10:24.831Z,22.40
2017-12-02T07:15:26.301Z,19.70
2017-12-02T07:20:27.840Z,18.97
2017-12-02T07:25:29.372Z,19.83
2017-12-02T07:30:31.613Z,19.23
2017-12-02T07:35:33.116Z,20.20
2017-12-02T07:40:35.375Z,22.17
2017-12-02T07:45:36.945Z,24.27
2017-12-02T07:50:38.449Z,26.47
2017-12-02T07:55:39.986Z,30.53
2017-12-02T08:00:41.501Z,30.03
2017-12-02T08:05:43.058Z,28.60
2017-12-02T08:10:44.600Z,33.10
2017-12-02T08:15:46.830Z,31.17
2017-12-02T08:20:48.360Z,29.83
2017-12-02T08:25:50.644Z,27.67
2017-12-02T08:30:52.973Z,25.90
2017-12-02T08:35:54.548Z,26.30
2017-12-02T08:41:03.338Z,28.33
2017-12-02T08:46:05.582Z,24.33
2017-12-02T08:51:07.146Z,24.20
2017-12-02T08:56:08.666Z,23.50
2017-12-02T09:01:10.197Z,22.90
2017-12-02T09:06:11.721Z,24.77
2017-12-02T09:11:13.260Z,23.83
2017-12-02T09:16:15.576Z,23.13
2017-12-02T09:21:17.128Z,24.30
2017-12-02T09:26:18.673Z,26.27
2017-12-02T09:31:20.917Z,27.33
2017-12-02T09:36:22.582Z,26.20
2017-12-02T09:41:24.123Z,26.43
2017-12-02T09:46:25.655Z,25.77
2017-12-02T09:51:27.970Z,29.00
2017-12-02T09:56:29.527Z,28.20
2017-12-02T10:01:31.012Z,27.30
2017-12-02T10:06:32.574Z,28.10
2017-12-02T10:11:34.138Z,36.93
2017-12-02T10:16:35.794Z,35.30
2017-12-02T10:21:37.321Z,32.73
2017-12-02T10:26:38.955Z,32.97
2017-12-02T10:31:41.141Z,35.70
2017-12-02T10:36:42.652Z,34.77
2017-12-02T10:41:44.155Z,30.50
2017-12-02T10:46:45.896Z,33.47
2017-12-02T10:51:48.107Z,29.73
2017-12-02T10:56:49.580Z,28.70
2017-12-02T11:01:51.176Z,31.13
2017-12-02T11:06:52.651Z,29.53
2017-12-02T11:11:54.220Z,27.03
2017-12-02T11:16:55.741Z,29.43
2017-12-02T11:21:57.331Z,31.53
2017-12-02T11:26:58.902Z,31.83
2017-12-02T11:32:01.276Z,30.80
2017-12-02T11:37:02.853Z,29.77
2017-12-02T11:42:04.436Z,29.47
2017-12-02T11:47:06.153Z,26.67
2017-12-02T11:52:08.429Z,29.70
2017-12-02T11:57:10.697Z,31.27
2017-12-02T12:02:12.279Z,26.97
2017-12-02T12:07:13.842Z,29.73
2017-12-02T12:12:15.357Z,30.00
2017-12-02T12:17:16.919Z,26.50
2017-12-02T12:22:18.565Z,28.70
2017-12-02T12:27:20.804Z,27.83
2017-12-02T12:32:22.398Z,26.83
2017-12-02T12:37:23.968Z,28.97
2017-12-02T12:42:25.501Z,29.63
2017-12-02T12:47:27.042Z,29.80
2017-12-02T12:52:28.588Z,26.97
2017-12-02T12:57:30.878Z,30.20
2017-12-02T13:02:33.148Z,26.70
2017-12-02T13:07:35.415Z,26.87
2017-12-02T13:12:36.924Z,28.80
2017-12-02T13:17:38.459Z,25.30
2017-12-02T13:22:39.993Z,23.07
2017-12-02T13:27:41.561Z,23.57
2017-12-02T13:32:43.070Z,24.10
2017-12-02T13:37:45.318Z,24.90
2017-12-02T13:42:46.820Z,29.60
2017-12-02T13:47:49.062Z,26.27
2017-12-02T13:52:50.586Z,26.07
2017-12-02T13:57:52.911Z,28.60
2017-12-02T14:02:54.458Z,27.30
2017-12-02T14:07:55.995Z,24.13
2017-12-02T14:12:58.256Z,22.10
2017-12-02T14:17:59.781Z,26.63
2017-12-02T14:23:01.293Z,25.80
2017-12-02T14:28:02.850Z,22.90
2017-12-02T14:33:04.316Z,24.53
2017-12-02T14:38:05.802Z,20.80
2017-12-02T14:43:07.380Z,23.40
2017-12-02T14:48:09.571Z,26.20
2017-12-02T14:53:11.829Z,25.43
2017-12-02T14:58:13.418Z,24.90
2017-12-02T15:03:15.686Z,26.20
2017-12-02T15:08:17.201Z,26.13
2017-12-02T15:13:18.721Z,24.67
2017-12-02T15:18:20.226Z,25.83
2017-12-02T15:23:21.770Z,26.90
2017-12-02T15:28:24.081Z,24.83
2017-12-02T15:33:25.649Z,24.77
2017-12-02T15:38:27.150Z,23.80
2017-12-02T15:43:28.676Z,26.40
2017-12-02T15:48:30.215Z,26.77
2017-12-02T15:53:32.668Z,28.17
2017-12-02T15:58:34.271Z,32.50
2017-12-02T16:03:35.832Z,30.70
2017-12-02T16:08:37.344Z,41.50
2017-12-02T16:13:38.887Z,27.50
2017-12-02T16:18:41.281Z,27.30
2017-12-02T16:23:43.573Z,28.13
2017-12-02T16:28:45.166Z,29.00
2017-12-02T16:33:46.694Z,27.37
2017-12-02T16:38:49.033Z,27.30
2017-12-02T16:43:50.558Z,25.97
2017-12-02T16:48:52.845Z,26.80
2017-12-02T16:53:54.476Z,27.63
2017-12-02T16:58:56.090Z,31.77
2017-12-02T17:03:57.727Z,27.80
2017-12-02T17:08:59.273Z,30.93
2017-12-02T17:14:00.776Z,29.07
2017-12-02T17:19:03.084Z,27.77
2017-12-02T17:24:04.670Z,27.77
2017-12-02T17:29:06.266Z,28.07
2017-12-02T17:34:07.792Z,26.90
2017-12-02T17:39:09.399Z,27.07
2017-12-02T17:44:10.951Z,28.20
2017-12-02T17:49:12.511Z,26.73
2017-12-02T17:54:14.149Z,29.23
2017-12-02T17:59:15.732Z,32.27
2017-12-02T18:04:17.338Z,31.27
2017-12-02T18:09:18.898Z,34.17
2017-12-02T18:14:20.380Z,33.27
2017-12-02T18:19:21.973Z,32.30
2017-12-02T18:24:24.346Z,35.60
2017-12-02T18:29:26.726Z,34.03
2017-12-02T18:34:28.237Z,32.63
2017-12-02T18:39:29.820Z,34.63
2017-12-02T18:44:31.471Z,33.90
2017-12-02T18:49:33.396Z,29.90
2017-12-02T18:54:34.944Z,32.20
2017-12-02T18:59:36.470Z,33.73
2017-12-02T19:04:38.716Z,32.70
2017-12-02T19:09:40.311Z,33.03
2017-12-02T19:14:42.726Z,31.30
2017-12-02T19:19:44.294Z,33.13
2017-12-02T19:24:45.868Z,31.90
2017-12-02T19:29:47.380Z,31.00
2017-12-02T19:34:48.985Z,30.80
2017-12-02T19:39:50.529Z,34.00
2017-12-02T19:44:52.101Z,34.47
2017-12-02T19:49:54.400Z,34.00
2017-12-02T19:54:56.686Z,32.87
2017-12-02T19:59:59.134Z,32.07
2017-12-02T20:05:00.748Z,29.90
2017-12-02T20:10:03.059Z,31.77
2017-12-02T20:15:04.597Z,34.17
2017-12-02T20:20:06.170Z,32.73
2017-12-02T20:25:08.391Z,29.70
2017-12-02T20:30:09.994Z,32.80
2017-12-02T20:35:11.722Z,32.23
2017-12-02T20:40:13.245Z,28.87
2017-12-02T20:45:14.816Z,28.13
2017-12-02T20:50:17.124Z,30.40
2017-12-02T20:55:18.739Z,29.60
2017-12-02T21:00:20.401Z,30.40
2017-12-02T21:05:21.919Z,29.27
2017-12-02T21:10:24.342Z,30.53
2017-12-02T21:15:25.893Z,33.83
2017-12-02T21:20:27.355Z,28.50
2017-12-02T21:25:28.857Z,28.70
2017-12-02T21:30:30.516Z,30.67
2017-12-02T21:35:32.122Z,29.50
2017-12-02T21:40:34.453Z,27.60
2017-12-02T21:45:36.156Z,36.17
2017-12-02T21:50:37.799Z,28.03
2017-12-02T21:55:39.572Z,27.80
2017-12-02T22:00:41.218Z,30.77
2017-12-02T22:05:42.858Z,29.77
2017-12-02T22:10:44.470Z,28.93
2017-12-02T22:15:45.984Z,31.43
2017-12-02T22:20:47.505Z,35.20
2017-12-02T22:25:49.249Z,28.57
2017-12-02T22:30:51.679Z,26.53
2017-12-02T22:35:53.244Z,30.93
2017-12-02T22:40:54.808Z,29.60
2017-12-02T22:45:56.283Z,29.53
2017-12-02T22:50:57.903Z,30.20
2017-12-02T22:55:59.397Z,29.00
2017-12-02T23:01:00.899Z,31.70
2017-12-02T23:06:02.430Z,28.40
2017-12-02T23:11:04.747Z,31.97
2017-12-02T23:16:06.266Z,29.47
2017-12-02T23:21:08.541Z,29.47
2017-12-02T23:26:10.050Z,30.40
2017-12-02T23:31:11.546Z,28.00
2017-12-02T23:36:13.108Z,30.30
2017-12-02T23:41:14.597Z,26.47
2017-12-02T23:46:16.151Z,30.30
2017-12-02T23:51:17.757Z,28.23
2017-12-02T23:56:20.062Z,28.40
